createdAt,value
2023-02-26T00:00:34.894Z,94440.44
2023-02-26T00:04:17.750Z,94437.56
2023-02-26T00:08:00.492Z,94443.22
2023-02-26T00:11:44.979Z,94440.63
2023-02-26T00:15:29.523Z,94445.97
2023-02-26T00:19:12.926Z,94455.97
2023-02-26T00:22:56.181Z,94455.31
2023-02-26T00:26:41.605Z,94462.75
2023-02-26T00:30:26.514Z,94464.88
2023-02-26T00:34:15.598Z,94462.47
2023-02-26T00:38:01.067Z,94463.09
2023-02-26T00:41:44.512Z,94473.41
2023-02-26T00:45:29.339Z,94469.53
2023-02-26T00:49:19.752Z,94471.13
2023-02-26T00:53:07.726Z,94465.97
2023-02-26T00:56:50.903Z,94470.47
2023-02-26T01:00:35.120Z,94464.94
2023-02-26T01:04:20.896Z,94468.09
2023-02-26T01:08:07.361Z,94474.81
2023-02-26T01:11:50.823Z,94471.78
2023-02-26T01:15:35.642Z,94471.44
2023-02-26T01:19:23.676Z,94463.13
2023-02-26T01:23:08.869Z,94478.41
2023-02-26T01:26:51.842Z,94477.31
2023-02-26T01:30:36.852Z,94477.19
2023-02-26T01:34:22.644Z,94474.13
2023-02-26T01:38:11.429Z,94488.97
2023-02-26T01:41:56.460Z,94492.16
2023-02-26T01:45:58.321Z,94497.44
2023-02-26T01:49:41.516Z,94498.56
2023-02-26T01:53:25.620Z,94495.00
2023-02-26T01:57:10.379Z,94501.28
2023-02-26T02:00:54.376Z,94500.75
2023-02-26T02:04:38.422Z,94494.50
2023-02-26T02:08:21.367Z,94505.25
2023-02-26T02:12:22.302Z,94497.63
2023-02-26T02:16:15.807Z,94501.13
2023-02-26T02:20:32.016Z,94507.03
2023-02-26T02:24:16.781Z,94513.50
2023-02-26T02:28:05.435Z,94518.38
2023-02-26T02:31:53.567Z,94518.38
2023-02-26T02:35:40.364Z,94514.81
2023-02-26T02:39:27.998Z,94515.34
2023-02-26T02:43:14.660Z,94519.06
2023-02-26T02:46:59.792Z,94528.72
2023-02-26T02:50:46.276Z,94533.22
2023-02-26T02:54:39.416Z,94525.50
2023-02-26T02:58:24.703Z,94537.47
2023-02-26T03:02:13.067Z,94529.03
2023-02-26T03:05:55.762Z,94531.81
2023-02-26T03:09:38.552Z,94537.88
2023-02-26T03:13:22.982Z,94553.75
2023-02-26T03:17:20.613Z,94544.47
2023-02-26T03:21:07.735Z,94545.06
2023-02-26T03:24:53.016Z,94548.59
2023-02-26T03:28:41.433Z,94558.16
2023-02-26T03:32:30.843Z,94562.00
2023-02-26T03:36:20.804Z,94572.59
2023-02-26T03:40:09.074Z,94578.03
2023-02-26T03:43:55.842Z,94578.25
2023-02-26T03:47:42.002Z,94574.78
2023-02-26T03:51:25.934Z,94584.94
2023-02-26T03:55:12.118Z,94592.50
2023-02-26T03:58:55.235Z,94594.38
2023-02-26T04:02:44.044Z,94590.25
2023-02-26T04:06:27.391Z,94595.25
2023-02-26T04:10:11.647Z,94600.47
2023-02-26T04:13:54.365Z,94598.47
2023-02-26T04:17:37.073Z,94600.38
2023-02-26T04:21:23.111Z,94601.50
2023-02-26T04:25:06.653Z,94604.75
2023-02-26T04:28:49.304Z,94610.59
2023-02-26T04:32:32.004Z,94616.13
2023-02-26T04:36:14.716Z,94626.13
2023-02-26T04:39:58.711Z,94628.03
2023-02-26T04:43:41.361Z,94626.31
2023-02-26T04:47:24.013Z,94622.44
2023-02-26T04:51:07.106Z,94629.13
2023-02-26T04:54:49.750Z,94635.50
2023-02-26T04:58:33.835Z,94636.84
2023-02-26T05:02:16.572Z,94639.03
2023-02-26T05:05:59.230Z,94635.81
2023-02-26T05:09:41.942Z,94635.28
2023-02-26T05:13:24.645Z,94636.38
2023-02-26T05:17:08.700Z,94641.78
2023-02-26T05:20:54.629Z,94648.28
2023-02-26T05:24:38.784Z,94656.69
2023-02-26T05:28:21.498Z,94654.78
2023-02-26T05:32:04.772Z,94663.06
2023-02-26T05:35:49.153Z,94666.44
2023-02-26T05:39:31.975Z,94679.72
2023-02-26T05:43:14.625Z,94666.69
2023-02-26T05:46:57.266Z,94665.91
2023-02-26T05:50:39.922Z,94679.19
2023-02-26T05:54:24.434Z,94679.59
2023-02-26T05:58:07.074Z,94675.69
2023-02-26T06:01:49.780Z,94672.03
2023-02-26T06:05:32.424Z,94655.38
2023-02-26T06:09:15.061Z,94664.31
2023-02-26T06:12:59.063Z,94670.00
2023-02-26T06:16:41.804Z,94689.75
2023-02-26T06:20:24.644Z,94704.22
2023-02-26T06:24:08.212Z,94722.75
2023-02-26T06:27:50.919Z,94737.66
2023-02-26T06:31:35.003Z,94752.94
2023-02-26T06:35:17.832Z,94756.88
2023-02-26T06:39:00.483Z,94769.06
2023-02-26T06:42:43.203Z,94765.84
2023-02-26T06:46:26.209Z,94770.97
2023-02-26T06:50:12.117Z,94765.28
2023-02-26T06:53:54.858Z,94775.56
2023-02-26T06:57:37.626Z,94772.56
2023-02-26T07:01:20.668Z,94770.94
2023-02-26T07:05:03.490Z,94777.84
2023-02-26T07:08:47.569Z,94791.28
2023-02-26T07:12:30.299Z,94800.75
2023-02-26T07:16:12.939Z,94806.56
2023-02-26T07:19:55.729Z,94815.66
2023-02-26T07:23:38.359Z,94818.59
2023-02-26T07:27:22.479Z,94823.84
2023-02-26T07:31:05.633Z,94825.84
2023-02-26T07:34:48.549Z,94819.06
2023-02-26T07:38:31.185Z,94822.34
2023-02-26T07:42:15.470Z,94830.66
2023-02-26T07:45:59.638Z,94829.13
2023-02-26T07:49:42.429Z,94835.34
2023-02-26T07:53:25.123Z,94824.50
2023-02-26T07:57:07.858Z,94816.66
2023-02-26T08:00:52.698Z,94827.91
2023-02-26T08:04:36.798Z,94839.41
2023-02-26T08:08:22.406Z,94848.72
2023-02-26T08:12:05.342Z,94850.97
2023-02-26T08:15:48.813Z,94868.72
2023-02-26T08:19:31.540Z,94856.06
2023-02-26T08:23:15.657Z,94859.69
2023-02-26T08:26:58.297Z,94867.94
2023-02-26T08:30:41.070Z,94868.50
2023-02-26T08:34:23.852Z,94877.97
2023-02-26T08:38:06.556Z,94884.97
2023-02-26T08:41:50.540Z,94882.91
2023-02-26T08:45:33.253Z,94882.72
2023-02-26T08:49:15.881Z,94881.84
2023-02-26T08:52:58.955Z,94888.84
2023-02-26T08:56:41.867Z,94898.59
2023-02-26T09:00:26.133Z,94903.84
2023-02-26T09:04:08.863Z,94909.00
2023-02-26T09:07:51.691Z,94921.31
2023-02-26T09:11:36.760Z,94916.41
2023-02-26T09:15:20.042Z,94922.19
2023-02-26T09:19:04.741Z,94924.25
2023-02-26T09:22:47.400Z,94928.84
2023-02-26T09:26:30.034Z,94924.78
2023-02-26T09:30:13.872Z,94944.94
2023-02-26T09:33:56.570Z,94952.00
2023-02-26T09:37:40.662Z,94949.56
2023-02-26T09:41:25.680Z,94949.88
2023-02-26T09:45:14.491Z,94958.28
2023-02-26T09:49:05.766Z,94951.44
2023-02-26T09:52:53.936Z,94956.59
2023-02-26T09:56:37.892Z,94954.75
2023-02-26T10:00:26.576Z,94956.31
2023-02-26T10:04:20.432Z,94966.34
2023-02-26T10:08:07.569Z,94967.38
2023-02-26T10:11:54.722Z,94972.53
2023-02-26T10:15:40.202Z,94963.53
2023-02-26T10:19:28.200Z,94962.91
2023-02-26T10:23:20.615Z,94956.09
2023-02-26T10:27:06.804Z,94951.75
2023-02-26T10:30:53.627Z,94956.91
2023-02-26T10:34:40.203Z,94962.31
2023-02-26T10:38:26.948Z,94961.19
2023-02-26T10:42:14.357Z,94954.09
2023-02-26T10:46:11.838Z,94948.31
2023-02-26T10:49:56.561Z,94942.34
2023-02-26T10:53:40.863Z,94940.56
2023-02-26T10:57:26.426Z,94929.69
2023-02-26T11:01:14.964Z,94934.53
2023-02-26T11:05:07.111Z,94935.13
2023-02-26T11:08:53.513Z,94924.41
2023-02-26T11:12:38.097Z,94919.09
2023-02-26T11:16:20.746Z,94925.47
2023-02-26T11:20:08.901Z,94926.13
2023-02-26T11:24:00.026Z,94937.31
2023-02-26T11:27:46.065Z,94942.69
2023-02-26T11:31:29.823Z,94963.75
2023-02-26T11:35:15.977Z,94958.28
2023-02-26T11:39:03.201Z,94968.69
2023-02-26T11:42:49.824Z,94961.53
2023-02-26T11:46:32.628Z,94965.78
2023-02-26T11:50:17.843Z,94965.84
2023-02-26T11:54:02.801Z,94976.88
2023-02-26T11:57:45.650Z,94972.97
2023-02-26T12:01:29.850Z,94978.72
2023-02-26T12:05:16.786Z,94966.84
2023-02-26T12:09:01.093Z,94986.63
2023-02-26T12:12:55.514Z,94969.25
2023-02-26T12:16:46.871Z,94979.41
2023-02-26T12:20:33.423Z,94978.91
2023-02-26T12:24:34.652Z,94982.75
2023-02-26T12:28:49.521Z,94982.03
2023-02-26T12:32:47.661Z,94983.50
2023-02-26T12:36:49.071Z,94979.13
2023-02-26T12:40:45.798Z,94967.63
2023-02-26T12:44:45.026Z,94972.16
2023-02-26T12:48:47.247Z,94970.22
2023-02-26T12:52:47.027Z,94952.41
2023-02-26T12:56:45.153Z,94946.56
2023-02-26T13:00:47.325Z,94940.25
2023-02-26T13:04:48.856Z,94942.97
2023-02-26T13:08:38.471Z,94943.38
2023-02-26T13:12:32.761Z,94944.09
2023-02-26T13:16:25.122Z,94938.63
2023-02-26T13:20:13.100Z,94961.63
2023-02-26T13:23:57.467Z,94984.75
2023-02-26T13:27:42.525Z,94982.28
2023-02-26T13:31:30.395Z,94978.03
2023-02-26T13:35:22.018Z,94976.25
2023-02-26T13:39:27.274Z,94968.16
2023-02-26T13:43:21.188Z,94966.22
2023-02-26T13:47:23.097Z,94959.91
2023-02-26T13:51:10.046Z,94971.56
2023-02-26T13:54:52.722Z,94965.88
2023-02-26T13:58:40.171Z,94973.13
2023-02-26T14:02:46.242Z,94975.00
2023-02-26T14:06:42.138Z,94978.66
2023-02-26T14:10:26.382Z,94979.31
2023-02-26T14:14:18.779Z,94988.06
2023-02-26T14:18:03.100Z,94975.41
2023-02-26T14:21:51.730Z,94970.78
2023-02-26T14:25:37.962Z,94972.25
2023-02-26T14:29:37.905Z,94976.78
2023-02-26T14:33:27.803Z,94977.38
2023-02-26T14:37:16.426Z,94985.13
2023-02-26T14:41:01.393Z,94985.63
2023-02-26T14:44:47.598Z,94994.25
2023-02-26T14:48:30.379Z,94994.72
2023-02-26T14:52:34.007Z,95011.75
2023-02-26T14:56:22.023Z,95015.25
2023-02-26T15:00:18.729Z,95024.47
2023-02-26T15:04:29.854Z,95016.03
2023-02-26T15:08:26.762Z,95020.56
2023-02-26T15:12:25.579Z,95023.00
2023-02-26T15:16:17.934Z,95019.88
2023-02-26T15:20:11.783Z,95016.84
2023-02-26T15:23:56.053Z,95026.41
2023-02-26T15:27:39.039Z,95029.38
2023-02-26T15:31:30.823Z,95034.28
2023-02-26T15:35:17.231Z,95045.44
2023-02-26T15:39:01.676Z,95056.69
2023-02-26T15:42:46.174Z,95060.06
2023-02-26T15:46:34.095Z,95052.78
2023-02-26T15:50:18.307Z,95054.19
2023-02-26T15:54:03.173Z,95051.97
2023-02-26T15:57:45.924Z,95054.94
2023-02-26T16:01:31.249Z,95055.28
2023-02-26T16:05:15.312Z,95072.84
2023-02-26T16:08:58.157Z,95070.38
2023-02-26T16:12:43.674Z,95071.19
2023-02-26T16:16:29.220Z,95082.84
2023-02-26T16:20:16.926Z,95084.06
2023-02-26T16:24:00.155Z,95101.41
2023-02-26T16:27:43.827Z,95100.41
2023-02-26T16:31:27.475Z,95103.13
2023-02-26T16:35:12.519Z,95112.50
2023-02-26T16:39:02.983Z,95127.00
2023-02-26T16:42:47.465Z,95127.88
2023-02-26T16:46:36.128Z,95140.06
2023-02-26T16:50:20.841Z,95143.09
2023-02-26T16:54:08.506Z,95144.28
2023-02-26T16:57:51.481Z,95155.28
2023-02-26T17:01:39.241Z,95165.56
2023-02-26T17:05:25.801Z,95170.75
2023-02-26T17:09:26.668Z,95168.00
2023-02-26T17:13:15.867Z,95176.06
2023-02-26T17:16:58.466Z,95185.63
2023-02-26T17:20:41.972Z,95180.06
2023-02-26T17:24:31.446Z,95187.91
2023-02-26T17:28:19.969Z,95197.38
2023-02-26T17:32:02.922Z,95201.28
2023-02-26T17:35:45.931Z,95215.47
2023-02-26T17:39:31.872Z,95221.13
2023-02-26T17:43:14.560Z,95231.03
2023-02-26T17:46:57.236Z,95241.69
2023-02-26T17:50:44.301Z,95238.72
2023-02-26T17:54:26.995Z,95240.19
2023-02-26T17:58:15.938Z,95237.66
2023-02-26T18:01:58.554Z,95244.78
2023-02-26T18:05:41.850Z,95250.81
2023-02-26T18:09:24.561Z,95255.22
2023-02-26T18:13:07.243Z,95262.56
2023-02-26T18:16:51.294Z,95267.75
2023-02-26T18:20:34.029Z,95258.59
2023-02-26T18:24:16.672Z,95263.94
2023-02-26T18:28:00.437Z,95268.88
2023-02-26T18:31:43.412Z,95280.03
2023-02-26T18:35:28.962Z,95276.06
2023-02-26T18:39:15.255Z,95283.16
2023-02-26T18:42:57.874Z,95274.88
2023-02-26T18:46:41.741Z,95280.31
2023-02-26T18:50:24.378Z,95275.16
2023-02-26T18:54:08.424Z,95279.91
2023-02-26T18:57:53.066Z,95279.38
2023-02-26T19:01:36.262Z,95280.88
2023-02-26T19:05:23.229Z,95293.50
2023-02-26T19:09:06.198Z,95281.38
2023-02-26T19:12:51.083Z,95279.75
2023-02-26T19:16:38.039Z,95277.56
2023-02-26T19:20:20.891Z,95281.66
2023-02-26T19:24:04.118Z,95284.50
2023-02-26T19:27:46.724Z,95287.38
2023-02-26T19:31:31.335Z,95292.28
2023-02-26T19:35:14.279Z,95297.19
2023-02-26T19:38:56.868Z,95293.09
2023-02-26T19:42:40.441Z,95295.28
2023-02-26T19:46:23.302Z,95290.13
2023-02-26T19:50:08.864Z,95291.19
2023-02-26T19:53:51.540Z,95299.75
2023-02-26T19:57:34.592Z,95298.53
2023-02-26T20:01:18.290Z,95304.50
2023-02-26T20:05:01.115Z,95317.03
2023-02-26T20:08:45.136Z,95320.69
2023-02-26T20:12:28.198Z,95322.19
2023-02-26T20:16:11.552Z,95330.75
2023-02-26T20:19:54.251Z,95337.41
2023-02-26T20:23:38.023Z,95346.66
2023-02-26T20:27:22.110Z,95363.22
2023-02-26T20:31:05.641Z,95345.28
2023-02-26T20:34:48.327Z,95358.06
2023-02-26T20:38:31.000Z,95366.47
2023-02-26T20:42:13.785Z,95366.75
2023-02-26T20:45:57.806Z,95358.44
2023-02-26T20:49:40.532Z,95362.13
2023-02-26T20:53:23.147Z,95365.34
2023-02-26T20:57:05.788Z,95365.63
2023-02-26T21:00:48.482Z,95364.00
2023-02-26T21:04:32.589Z,95379.50
2023-02-26T21:08:15.350Z,95383.72
2023-02-26T21:11:57.967Z,95387.38
2023-02-26T21:15:40.625Z,95379.22
2023-02-26T21:19:26.443Z,95379.22
2023-02-26T21:23:10.493Z,95377.06
2023-02-26T21:26:53.097Z,95380.31
2023-02-26T21:30:36.000Z,95383.72
2023-02-26T21:34:33.232Z,95384.75
2023-02-26T21:38:18.886Z,95391.69
2023-02-26T21:42:03.678Z,95391.28
2023-02-26T21:45:48.867Z,95395.91
2023-02-26T21:49:31.940Z,95403.25
2023-02-26T21:53:14.695Z,95401.19
2023-02-26T21:56:59.271Z,95400.75
2023-02-26T22:00:41.910Z,95396.69
2023-02-26T22:04:24.665Z,95408.22
2023-02-26T22:08:07.360Z,95402.94
2023-02-26T22:11:50.049Z,95400.19
2023-02-26T22:15:34.044Z,95419.91
2023-02-26T22:19:16.671Z,95408.63
2023-02-26T22:22:59.609Z,95415.97
2023-02-26T22:26:42.715Z,95412.28
2023-02-26T22:30:25.637Z,95416.38
2023-02-26T22:34:09.894Z,95415.41
2023-02-26T22:37:52.585Z,95418.69
2023-02-26T22:41:36.271Z,95412.16
2023-02-26T22:45:19.657Z,95416.91
2023-02-26T22:49:02.311Z,95424.66
2023-02-26T22:52:47.239Z,95421.13
2023-02-26T22:56:29.903Z,95416.78
2023-02-26T23:00:15.826Z,95414.63
2023-02-26T23:03:59.361Z,95415.75
2023-02-26T23:07:42.247Z,95422.56
2023-02-26T23:11:26.463Z,95422.81
2023-02-26T23:15:10.829Z,95416.84
2023-02-26T23:18:53.473Z,95420.75
2023-02-26T23:22:36.089Z,95432.41
2023-02-26T23:26:19.183Z,95434.44
2023-02-26T23:30:03.259Z,95432.66
2023-02-26T23:33:46.165Z,95451.81
2023-02-26T23:37:28.843Z,95441.25
2023-02-26T23:41:11.476Z,95436.09
2023-02-26T23:44:54.115Z,95439.34
2023-02-26T23:48:38.085Z,95443.16
2023-02-26T23:52:20.711Z,95432.22
2023-02-26T23:56:03.346Z,95440.94
2023-02-26T23:59:45.949Z,95443.63
